Time;durP1;ratioP1;P1;durP2;ratioP2;P2;SDS_P1;SDS_P2;PMS_P1;PMS_P2;Temp;Humidity;BMP_temperature;BMP_pressure;BME280_temperature;BME280_humidity;BME280_pressure;Samples;Min_cycle;Max_cycle;Signal;HPM_P1;HPM_P2
2022/05/04 00:00:27;;;;;;;0.50;0.50;;;;;;;6.93;59.75;98336.22;4915424;29;20148;-82
2022/05/04 00:02:54;;;;;;;0.50;0.50;;;;;;;6.88;59.62;98338.81;4915784;29;20048;-82
2022/05/04 00:05:21;;;;;;;0.50;0.50;;;;;;;6.89;59.83;98336.97;4915387;29;20141;-83
2022/05/04 00:07:48;;;;;;;0.50;0.50;;;;;;;6.92;59.98;98345.34;4915592;29;20052;-84
2022/05/04 00:10:15;;;;;;;0.50;0.50;;;;;;;6.89;60.50;98359.22;4915566;29;20052;-83
2022/05/04 00:12:43;;;;;;;0.50;0.50;;;;;;;6.84;60.92;98358.31;4915881;29;20295;-83
2022/05/04 00:15:10;;;;;;;0.50;0.50;;;;;;;6.80;61.07;98352.59;4915331;29;20051;-83
2022/05/04 00:17:37;;;;;;;0.50;0.50;;;;;;;6.82;61.48;98349.69;4915163;29;20048;-82
2022/05/04 00:20:05;;;;;;;0.50;0.50;;;;;;;6.74;61.89;98358.91;4915420;29;20479;-83
2022/05/04 00:22:32;;;;;;;0.50;0.50;;;;;;;6.72;61.88;98363.69;4882716;29;20052;-83
2022/05/04 00:24:59;;;;;;;0.57;0.57;;;;;;;6.70;61.85;98368.47;4915165;29;20143;-83
2022/05/04 00:27:26;;;;;;;0.60;0.60;;;;;;;6.69;61.88;98366.84;4898354;29;20059;-83
2022/05/04 00:29:53;;;;;;;0.50;0.50;;;;;;;6.65;62.02;98365.66;4916888;29;20151;-83
2022/05/04 00:32:21;;;;;;;0.40;0.40;;;;;;;6.67;62.23;98379.66;4917024;29;20059;-83
2022/05/04 00:34:49;;;;;;;0.50;0.50;;;;;;;6.63;62.69;98359.72;4915641;29;20064;-84
2022/05/04 00:37:16;;;;;;;0.50;0.50;;;;;;;6.57;63.23;98363.34;4914927;29;20099;-84
2022/05/04 00:39:44;;;;;;;0.50;0.50;;;;;;;6.44;62.46;98351.81;4948451;29;20053;-83
2022/05/04 00:42:13;;;;;;;0.50;0.50;;;;;;;6.28;63.06;98350.66;4953029;29;20113;-83
2022/05/04 00:44:44;;;;;;;0.50;0.50;;;;;;;6.18;63.89;98352.25;4936536;29;20070;-83
2022/05/04 00:47:12;;;;;;;0.50;0.50;;;;;;;6.08;64.07;98339.47;4953333;29;20392;-83
2022/05/04 00:49:40;;;;;;;0.50;0.50;;;;;;;6.06;64.24;98338.88;4953205;29;20051;-82
2022/05/04 00:52:07;;;;;;;0.52;0.52;;;;;;;6.07;64.42;98349.34;4952967;29;20055;-83
2022/05/04 00:54:35;;;;;;;0.50;0.50;;;;;;;6.11;62.89;98354.25;4953321;29;20087;-83
2022/05/04 00:57:04;;;;;;;0.50;0.50;;;;;;;6.16;62.72;98352.50;4935949;29;20164;-84
2022/05/04 00:59:32;;;;;;;0.50;0.50;;;;;;;6.12;63.38;98347.84;4952935;29;20246;-82
2022/05/04 01:01:59;;;;;;;0.50;0.50;;;;;;;6.01;63.41;98350.28;4953319;29;20051;-84
2022/05/04 01:04:27;;;;;;;0.50;0.50;;;;;;;5.86;64.15;98341.84;4921198;29;20146;-84
2022/05/04 01:06:54;;;;;;;0.50;0.50;;;;;;;5.74;64.51;98344.47;4953160;29;20074;-84
2022/05/04 01:09:20;;;;;;;0.50;0.50;;;;;;;5.64;65.18;98341.53;4953370;29;20098;-84
2022/05/04 01:11:48;;;;;;;0.50;0.50;;;;;;;5.59;64.95;98339.53;4936123;29;20050;-83
2022/05/04 01:14:16;;;;;;;0.50;0.50;;;;;;;5.55;64.15;98345.59;4952869;29;20047;-83
2022/05/04 01:16:45;;;;;;;0.50;0.50;;;;;;;5.50;64.24;98342.78;4935982;29;20094;-83
2022/05/04 01:19:13;;;;;;;0.52;0.52;;;;;;;5.42;64.86;98342.06;4952465;29;20063;-83
2022/05/04 01:21:40;;;;;;;0.50;0.50;;;;;;;5.38;64.34;98343.56;4952926;29;20066;-84
2022/05/04 01:24:09;;;;;;;0.50;0.50;;;;;;;5.33;64.42;98337.25;4953507;29;20098;-83
2022/05/04 01:26:36;;;;;;;0.55;0.55;;;;;;;5.35;64.12;98352.03;4961091;29;20077;-84
2022/05/04 01:29:04;;;;;;;0.50;0.50;;;;;;;5.21;64.78;98346.03;4962286;29;20063;-85
2022/05/04 01:31:31;;;;;;;0.60;0.60;;;;;;;5.16;65.19;98353.91;4960937;29;20102;-83
2022/05/04 01:34:00;;;;;;;0.50;0.50;;;;;;;5.10;65.27;98354.81;4953060;28;20118;-84
2022/05/04 01:36:27;;;;;;;0.50;0.50;;;;;;;5.06;65.59;98358.97;4955367;29;20130;-83
2022/05/04 01:38:54;;;;;;;0.60;0.60;;;;;;;5.04;65.38;98339.69;4957005;29;20189;-82
2022/05/04 01:44:07;;;;;;;0.60;0.60;;;;;;;4.99;66.00;98347.56;4957256;29;20426;-83
2022/05/04 01:46:34;;;;;;;0.60;0.60;;;;;;;4.99;65.93;98350.25;4956811;29;20040;-83
2022/05/04 01:49:02;;;;;;;0.60;0.60;;;;;;;4.89;66.50;98356.13;4939441;29;20482;-83
2022/05/04 01:51:29;;;;;;;0.50;0.50;;;;;;;4.88;66.33;98345.63;4954890;29;20055;-83
2022/05/04 01:53:57;;;;;;;0.50;0.50;;;;;;;4.90;66.17;98351.56;4956363;29;20458;-82
2022/05/04 01:56:24;;;;;;;0.50;0.50;;;;;;;4.91;66.35;98342.50;4938772;29;20049;-83
2022/05/04 01:58:51;;;;;;;0.60;0.60;;;;;;;4.92;66.49;98349.50;4937907;29;20107;-84
2022/05/04 02:01:18;;;;;;;0.50;0.50;;;;;;;4.83;66.68;98348.97;4936952;29;20099;-83
2022/05/04 02:03:47;;;;;;;0.60;0.60;;;;;;;4.76;67.08;98343.72;4937211;29;20071;-82
2022/05/04 02:06:15;;;;;;;0.50;0.50;;;;;;;4.69;67.52;98350.19;4919406;29;20570;-82
2022/05/04 02:08:42;;;;;;;0.60;0.60;;;;;;;4.62;68.01;98342.22;4904841;29;20099;-83
2022/05/04 02:11:09;;;;;;;0.50;0.50;;;;;;;4.67;68.10;98365.63;4938314;29;20103;-83
2022/05/04 02:13:36;;;;;;;0.60;0.60;;;;;;;4.67;68.24;98361.09;4920244;29;20506;-84
2022/05/04 02:16:05;;;;;;;0.50;0.50;;;;;;;4.71;68.51;98372.97;4936735;29;20638;-84
2022/05/04 02:18:33;;;;;;;0.55;0.55;;;;;;;4.82;68.03;98368.75;4936595;29;20106;-85
2022/05/04 02:21:00;;;;;;;0.60;0.60;;;;;;;4.90;67.78;98379.13;4936847;29;20055;-82
2022/05/04 02:23:27;;;;;;;0.50;0.50;;;;;;;4.94;67.96;98383.00;4936723;29;20055;-82
2022/05/04 02:25:54;;;;;;;0.50;0.50;;;;;;;4.97;67.89;98381.75;4936539;29;20055;-82
2022/05/04 02:28:22;;;;;;;0.60;0.60;;;;;;;4.98;68.13;98378.81;4936342;29;20057;-83
2022/05/04 02:30:49;;;;;;;0.60;0.60;;;;;;;5.11;68.02;98388.53;4919427;29;20100;-83
2022/05/04 02:33:16;;;;;;;0.50;0.50;;;;;;;5.30;67.53;98381.34;4919490;29;20054;-84
2022/05/04 02:38:52;;;;;;;0.50;0.50;;;;;;;5.34;67.11;98377.19;4916722;29;20066;-83
2022/05/04 02:41:20;;;;;;;0.50;0.50;;;;;;;5.23;67.80;98372.56;4935913;29;20051;-82
2022/05/04 02:43:48;;;;;;;0.50;0.50;;;;;;;5.12;68.06;98373.34;4919350;29;20411;-83
2022/05/04 02:46:17;;;;;;;0.50;0.50;;;;;;;5.02;68.72;98378.41;4935231;29;20048;-84
2022/05/04 02:48:46;;;;;;;0.57;0.57;;;;;;;4.99;68.74;98377.81;4919101;29;20082;-83
2022/05/04 02:51:13;;;;;;;0.60;0.60;;;;;;;5.00;68.68;98378.63;4919029;29;20102;-82
2022/05/04 02:53:41;;;;;;;0.60;0.60;;;;;;;5.06;68.79;98383.06;4919153;29;20044;-82
2022/05/04 02:56:10;;;;;;;0.60;0.60;;;;;;;5.19;68.43;98395.44;4936165;29;20058;-84
2022/05/04 02:58:38;;;;;;;0.60;0.60;;;;;;;5.26;68.17;98395.38;4936648;29;20585;-84
2022/05/04 03:03:58;;;;;;;0.60;0.60;;;;;;;5.77;66.76;98394.91;4936216;29;20103;-83
2022/05/04 03:06:26;;;;;;;0.55;0.55;;;;;;;5.87;66.15;98397.00;4936182;29;20059;-83
2022/05/04 03:08:53;;;;;;;0.60;0.60;;;;;;;5.86;65.95;98406.91;4906815;29;20052;-86
2022/05/04 03:14:08;;;;;;;0.60;0.60;;;;;;;5.75;66.14;98415.75;4903763;29;20052;-85
2022/05/04 03:16:35;;;;;;;0.60;0.60;;;;;;;5.77;66.19;98419.00;4923181;29;20487;-85
2022/05/04 03:19:04;;;;;;;0.60;0.60;;;;;;;5.86;65.92;98424.84;4921700;29;20440;-84
2022/05/04 03:21:32;;;;;;;0.60;0.60;;;;;;;5.80;65.96;98428.44;4917135;29;20542;-85
2022/05/04 03:23:59;;;;;;;0.50;0.50;;;;;;;5.72;66.36;98421.56;4916961;29;20632;-84
2022/05/04 03:26:27;;;;;;;0.50;0.50;;;;;;;5.68;66.27;98412.34;4916432;29;20048;-84
2022/05/04 03:28:55;;;;;;;0.50;0.50;;;;;;;5.71;67.02;98419.91;4919875;29;20533;-84
2022/05/04 03:31:22;;;;;;;0.60;0.60;;;;;;;5.70;66.99;98420.97;4932519;29;20051;-84
2022/05/04 03:33:50;;;;;;;0.50;0.50;;;;;;;5.65;66.81;98418.16;4929727;29;20052;-84
2022/05/04 03:36:17;;;;;;;0.60;0.60;;;;;;;5.77;66.25;98434.22;4932597;29;20118;-82
2022/05/04 03:38:44;;;;;;;0.50;0.50;;;;;;;5.80;65.89;98428.44;4935315;29;20102;-83
2022/05/04 03:41:11;;;;;;;0.60;0.60;;;;;;;5.89;65.28;98437.78;4902498;29;20052;-85
2022/05/04 03:43:38;;;;;;;0.60;0.60;;;;;;;6.05;64.88;98426.47;4934266;29;20071;-82
2022/05/04 03:46:20;;;;;;;0.60;0.60;;;;;;;6.33;64.57;98427.69;4926523;29;20586;-82
2022/05/04 03:48:49;;;;;;;0.52;0.52;;;;;;;6.43;63.92;98403.81;4930178;29;20048;-80
2022/05/04 03:51:19;;;;;;;0.60;0.60;;;;;;;6.34;63.92;98401.69;4934739;29;20083;-85
2022/05/04 03:53:51;;;;;;;0.60;0.60;;;;;;;6.25;64.17;98414.59;4935164;29;20079;-83
2022/05/04 03:56:19;;;;;;;0.60;0.60;;;;;;;6.17;64.64;98413.06;4903525;29;20143;-85
2022/05/04 03:58:46;;;;;;;0.65;0.65;;;;;;;6.21;64.44;98424.16;4918360;29;20111;-83
2022/05/04 04:01:14;;;;;;;0.60;0.60;;;;;;;6.30;64.01;98414.72;4909861;29;20086;-83
2022/05/04 04:03:41;;;;;;;0.60;0.60;;;;;;;6.61;63.36;98416.28;4922629;29;20106;-83
2022/05/04 04:06:08;;;;;;;0.60;0.60;;;;;;;6.66;62.92;98410.19;4920445;29;20062;-88
2022/05/04 04:08:35;;;;;;;0.60;0.60;;;;;;;6.71;62.45;98418.38;4928755;29;20395;-85
2022/05/04 04:11:03;;;;;;;0.60;0.60;;;;;;;6.84;61.46;98423.50;4908243;29;20074;-85
2022/05/04 04:13:30;;;;;;;0.60;0.60;;;;;;;6.83;61.26;98400.38;4906721;29;20048;-86
2022/05/04 04:15:58;;;;;;;0.60;0.60;;;;;;;7.09;60.71;98414.34;4923854;29;20052;-85
2022/05/04 04:18:26;;;;;;;0.50;0.50;;;;;;;7.37;59.75;98425.16;4921877;29;20138;-83
2022/05/04 04:23:41;;;;;;;0.50;0.50;;;;;;;7.09;60.50;98436.66;4934738;29;20047;-85
2022/05/04 04:26:09;;;;;;;0.50;0.50;;;;;;;7.09;60.46;98446.53;4934639;29;20593;-84
2022/05/04 04:28:40;;;;;;;0.50;0.50;;;;;;;6.98;60.67;98452.75;4934786;29;20491;-88
2022/05/04 04:31:11;;;;;;;0.60;0.60;;;;;;;6.86;61.33;98458.94;4937388;29;20043;-85
2022/05/04 04:33:38;;;;;;;0.57;0.57;;;;;;;6.91;61.30;98461.75;4922499;29;20144;-85
2022/05/04 04:36:06;;;;;;;0.60;0.60;;;;;;;6.99;61.44;98451.69;4884215;29;20051;-85
2022/05/04 04:38:33;;;;;;;0.50;0.50;;;;;;;6.86;61.68;98464.31;4916806;29;20518;-85
2022/05/04 04:41:00;;;;;;;0.60;0.60;;;;;;;6.69;62.44;98466.88;4934256;29;20048;-85
2022/05/04 04:43:27;;;;;;;0.60;0.60;;;;;;;6.52;63.13;98468.59;4901382;29;20051;-84
2022/05/04 04:45:55;;;;;;;0.50;0.50;;;;;;;6.31;63.14;98478.00;4934457;29;20046;-85
2022/05/04 04:48:22;;;;;;;0.50;0.50;;;;;;;6.27;64.25;98492.91;4933859;29;20047;-84
2022/05/04 04:50:49;;;;;;;0.50;0.50;;;;;;;6.06;64.77;98492.38;4934033;29;20467;-84
2022/05/04 04:53:19;;;;;;;0.60;0.60;;;;;;;5.82;65.53;98472.69;4916703;29;20078;-84
2022/05/04 04:55:47;;;;;;;0.60;0.60;;;;;;;5.61;65.72;98473.97;4934582;29;20058;-84
2022/05/04 04:58:14;;;;;;;0.60;0.60;;;;;;;5.38;66.44;98473.88;4934172;29;20055;-84
2022/05/04 05:00:41;;;;;;;0.60;0.60;;;;;;;5.40;66.89;98474.47;4934478;29;20056;-84
2022/05/04 05:03:09;;;;;;;0.65;0.65;;;;;;;5.32;67.16;98458.72;4934462;29;20044;-84
2022/05/04 05:05:40;;;;;;;0.60;0.60;;;;;;;5.60;66.78;98475.03;4934434;29;20094;-85
2022/05/04 05:08:08;;;;;;;0.60;0.60;;;;;;;5.77;66.59;98482.44;4933800;29;20114;-85
2022/05/04 05:10:35;;;;;;;0.63;0.63;;;;;;;5.82;66.23;98483.41;4916562;29;20048;-85
2022/05/04 05:13:03;;;;;;;0.60;0.60;;;;;;;5.65;66.92;98483.22;4934123;29;20052;-85
2022/05/04 05:18:20;;;;;;;0.70;0.70;;;;;;;5.70;66.65;98495.09;4933683;29;20055;-85
2022/05/04 05:20:48;;;;;;;0.80;0.80;;;;;;;6.18;65.57;98494.25;4934044;29;20142;-85
2022/05/04 05:23:22;;;;;;;0.70;0.70;;;;;;;6.54;64.31;98484.47;4933478;29;20521;-84
2022/05/04 05:25:51;;;;;;;0.70;0.70;;;;;;;6.64;63.75;98495.44;4933699;29;20400;-84
2022/05/04 05:28:18;;;;;;;0.60;0.60;;;;;;;6.46;64.40;98501.69;4916349;29;20095;-84
2022/05/04 05:30:46;;;;;;;0.50;0.50;;;;;;;6.27;65.23;98495.59;4933708;29;20082;-84
2022/05/04 05:33:13;;;;;;;0.60;0.60;;;;;;;6.31;65.78;98504.00;4933321;29;20126;-84
2022/05/04 05:35:40;;;;;;;0.60;0.60;;;;;;;6.41;65.75;98504.25;4916635;29;20048;-84
2022/05/04 05:38:09;;;;;;;0.60;0.60;;;;;;;6.57;64.77;98506.25;4933699;29;20184;-85
2022/05/04 05:40:37;;;;;;;0.65;0.65;;;;;;;6.50;63.61;98492.94;4900501;29;20052;-85
2022/05/04 05:43:04;;;;;;;0.60;0.60;;;;;;;6.54;63.78;98506.72;4916490;29;20130;-84
2022/05/04 05:45:31;;;;;;;0.60;0.60;;;;;;;6.51;64.16;98509.88;4916461;29;20076;-85
2022/05/04 05:47:59;;;;;;;0.60;0.60;;;;;;;6.52;64.52;98514.16;4933929;29;20095;-83
2022/05/04 05:50:26;;;;;;;0.60;0.60;;;;;;;6.60;64.52;98508.47;4916227;29;20399;-84
2022/05/04 05:52:53;;;;;;;0.60;0.60;;;;;;;6.68;64.00;98500.09;4933317;29;20079;-85
2022/05/04 05:55:21;;;;;;;0.60;0.60;;;;;;;6.68;63.76;98499.28;4933896;29;20056;-83
2022/05/04 05:57:48;;;;;;;0.70;0.70;;;;;;;6.78;63.76;98512.91;4918347;29;20051;-85
2022/05/04 06:00:16;;;;;;;0.70;0.70;;;;;;;6.98;63.23;98512.59;4917629;29;20052;-84
2022/05/04 06:02:45;;;;;;;0.68;0.68;;;;;;;7.08;63.06;98499.41;4934390;29;20048;-84
2022/05/04 06:05:12;;;;;;;0.57;0.57;;;;;;;6.88;62.97;98499.75;4916778;29;20079;-85
2022/05/04 06:07:39;;;;;;;0.60;0.60;;;;;;;6.80;63.45;98502.78;4934506;29;20455;-85
2022/05/04 06:10:07;;;;;;;0.70;0.70;;;;;;;7.19;62.45;98496.94;4917314;29;20070;-84
2022/05/04 06:12:35;;;;;;;0.70;0.70;;;;;;;7.93;60.84;98499.81;4915944;29;20052;-83
2022/05/04 06:15:02;;;;;;;0.60;0.60;;;;;;;7.93;58.65;98494.47;4933259;29;20075;-85
2022/05/04 06:17:30;;;;;;;0.60;0.60;;;;;;;7.77;58.85;98496.00;4933073;29;20467;-83
2022/05/04 06:19:57;;;;;;;0.60;0.60;;;;;;;7.86;58.40;98507.22;4931915;29;20056;-85
2022/05/04 06:22:24;;;;;;;0.70;0.70;;;;;;;7.92;57.91;98507.06;4935632;29;20062;-85
2022/05/04 06:24:51;;;;;;;0.70;0.70;;;;;;;8.04;56.88;98497.06;4936708;29;20138;-84
2022/05/04 06:27:18;;;;;;;0.60;0.60;;;;;;;8.25;56.56;98503.66;4903565;29;20059;-84
2022/05/04 06:35:23;;;;;;;0.70;0.70;;;;;;;9.06;52.43;98521.41;4919554;29;20114;-83
2022/05/04 06:37:50;;;;;;;0.63;0.63;;;;;;;9.14;52.27;98514.78;4919016;29;20111;-85
2022/05/04 06:40:17;;;;;;;0.70;0.70;;;;;;;8.81;52.98;98513.75;4936128;29;20058;-84
2022/05/04 06:42:44;;;;;;;0.60;0.60;;;;;;;8.82;52.37;98518.09;4920928;29;20426;-85
2022/05/04 06:45:11;;;;;;;0.60;0.60;;;;;;;9.18;52.23;98524.00;4938229;29;20130;-85
2022/05/04 06:47:38;;;;;;;0.70;0.70;;;;;;;9.33;50.91;98524.22;4919072;29;20433;-86
2022/05/04 06:50:06;;;;;;;0.68;0.68;;;;;;;9.50;50.78;98519.63;4919294;29;20059;-83
2022/05/04 06:52:33;;;;;;;0.60;0.60;;;;;;;9.64;51.08;98525.44;4918688;29;20056;-84
2022/05/04 06:55:00;;;;;;;0.60;0.60;;;;;;;9.34;52.44;98512.38;4936327;29;20530;-83
2022/05/04 06:57:29;;;;;;;0.70;0.70;;;;;;;8.99;53.49;98520.75;4935944;29;20558;-84
2022/05/04 06:59:59;;;;;;;0.70;0.70;;;;;;;8.81;52.81;98516.44;4918982;29;20067;-83
2022/05/04 07:02:26;;;;;;;0.60;0.60;;;;;;;8.57;52.45;98535.41;4937348;29;20526;-84
2022/05/04 07:04:53;;;;;;;0.60;0.60;;;;;;;8.51;51.60;98546.31;4937799;29;20103;-84
2022/05/04 07:07:29;;;;;;;0.70;0.70;;;;;;;8.23;52.15;98556.84;4907250;29;20079;-84
2022/05/04 07:09:57;;;;;;;0.70;0.70;;;;;;;7.94;52.32;98568.63;4919310;29;20047;-85
2022/05/04 07:12:24;;;;;;;0.70;0.70;;;;;;;8.11;52.40;98563.31;4919473;29;20123;-84
2022/05/04 07:14:53;;;;;;;0.80;0.80;;;;;;;8.85;52.18;98576.78;4936182;29;20111;-84
2022/05/04 07:17:20;;;;;;;0.80;0.80;;;;;;;9.15;49.83;98568.38;4935708;29;20131;-85
2022/05/04 07:19:48;;;;;;;0.60;0.60;;;;;;;9.07;49.42;98580.38;4916295;29;20063;-84
2022/05/04 07:22:16;;;;;;;0.80;0.80;;;;;;;8.99;49.07;98564.66;4948530;29;20052;-83
2022/05/04 07:24:43;;;;;;;0.50;0.50;;;;;;;8.62;49.65;98575.03;4917676;29;20060;-84
2022/05/04 07:27:11;;;;;;;0.50;0.50;;;;;;;7.88;51.41;98594.56;4917138;29;20068;-84
2022/05/04 07:29:38;;;;;;;0.73;0.73;;;;;;;7.99;51.17;98595.59;4917655;29;20460;-84
2022/05/04 07:32:05;;;;;;;0.80;0.80;;;;;;;8.26;49.95;98598.56;4917506;29;20096;-84
2022/05/04 07:34:32;;;;;;;0.90;0.90;;;;;;;8.45;49.76;98596.53;4915446;29;20511;-84
2022/05/04 07:37:00;;;;;;;0.90;0.90;;;;;;;8.64;48.85;98600.66;4921345;29;20076;-85
2022/05/04 07:42:21;;;;;;;0.90;0.90;;;;;;;9.03;47.96;98584.63;4918964;29;20532;-84
2022/05/04 07:44:50;;;;;;;0.90;0.90;;;;;;;9.30;47.73;98600.13;4916953;29;20051;-84
2022/05/04 07:47:27;;;;;;;0.90;0.90;;;;;;;10.01;46.82;98600.28;4916398;29;20111;-85
2022/05/04 07:49:55;;;;;;;0.60;0.60;;;;;;;9.36;46.12;98607.19;4916587;29;20143;-84
2022/05/04 07:52:23;;;;;;;0.90;0.90;;;;;;;8.96;47.57;98605.47;4914697;29;20052;-84
2022/05/04 07:54:50;;;;;;;0.90;0.90;;;;;;;9.50;48.09;98613.09;4916731;29;20044;-83
2022/05/04 07:57:19;;;;;;;0.70;0.70;;;;;;;9.71;46.40;98622.25;4916772;29;20163;-84
2022/05/04 08:05:30;;;;;;;0.90;0.90;;;;;;;9.06;46.38;98629.91;4941717;29;20139;-84
2022/05/04 08:07:58;;;;;;;0.80;0.80;;;;;;;9.36;45.78;98630.63;4899919;29;20717;-83
2022/05/04 08:10:25;;;;;;;0.90;0.90;;;;;;;9.76;45.02;98643.91;4915105;29;20440;-84
2022/05/04 08:12:53;;;;;;;0.90;0.90;;;;;;;9.74;44.89;98643.31;4916650;29;20056;-83
2022/05/04 08:15:20;;;;;;;0.90;0.90;;;;;;;10.35;44.51;98633.34;4916967;29;20047;-84
2022/05/04 08:17:47;;;;;;;0.80;0.80;;;;;;;10.65;43.50;98648.25;4916684;29;20067;-83
2022/05/04 08:20:14;;;;;;;0.60;0.60;;;;;;;10.31;43.70;98655.72;4934479;29;20047;-84
2022/05/04 08:22:41;;;;;;;0.80;0.80;;;;;;;9.79;45.37;98647.97;4934065;29;20048;-84
2022/05/04 08:25:09;;;;;;;0.90;0.90;;;;;;;10.33;42.79;98654.41;4934412;29;20138;-84
2022/05/04 08:27:37;;;;;;;0.90;0.90;;;;;;;11.15;41.39;98662.53;4934902;29;20059;-83
2022/05/04 08:30:05;;;;;;;0.60;0.60;;;;;;;10.62;41.60;98654.19;4901788;29;20490;-85
2022/05/04 08:32:39;;;;;;;0.90;0.90;;;;;;;10.79;40.86;98648.69;4933500;29;20055;-84
2022/05/04 08:35:06;;;;;;;0.98;0.98;;;;;;;11.25;38.63;98663.44;4917631;29;20526;-84
2022/05/04 08:37:33;;;;;;;0.70;0.70;;;;;;;11.37;37.72;98660.56;4918532;29;20056;-84
2022/05/04 08:40:00;;;;;;;0.90;0.90;;;;;;;11.85;37.21;98656.03;4935575;29;20396;-84
2022/05/04 08:42:29;;;;;;;0.90;0.90;;;;;;;12.80;35.59;98668.63;4916827;29;20055;-85
2022/05/04 08:44:57;;;;;;;1.00;1.00;;;;;;;12.32;35.44;98670.63;4933877;29;20044;-83
2022/05/04 08:47:31;;;;;;;0.50;0.50;;;;;;;12.30;36.35;98676.31;4934206;29;20048;-83
2022/05/04 08:49:59;;;;;;;0.60;0.60;;;;;;;12.88;35.12;98654.56;4917592;29;20136;-84
2022/05/04 08:52:30;;;;;;;0.70;0.70;;;;;;;11.98;35.29;98664.78;4933661;29;20047;-84
2022/05/04 08:54:57;;;;;;;0.50;0.50;;;;;;;10.61;37.96;98688.44;4931195;29;20050;-82
2022/05/04 08:57:24;;;;;;;0.60;0.60;;;;;;;9.65;41.26;98715.69;4934090;29;20074;-85
2022/05/04 08:59:53;;;;;;;0.55;0.55;;;;;;;8.81;44.22;98672.50;4933684;29;20079;-84
2022/05/04 09:02:21;;;;;;;0.52;0.52;;;;;;;8.06;47.03;98733.34;4933279;29;20043;-85
2022/05/04 09:04:48;;;;;;;0.90;0.90;;;;;;;8.57;47.40;98730.97;4933813;29;20511;-84
2022/05/04 09:07:23;;;;;;;1.00;1.00;;;;;;;9.32;45.30;98743.44;4933462;29;20082;-85
2022/05/04 09:09:51;;;;;;;;;;;;;;;9.72;44.68;98731.69;4934442;29;20056;-85
2022/05/04 09:12:19;;;;;;;1.10;1.10;;;;;;;9.49;45.58;98746.13;4917146;29;19926;-83
2022/05/04 09:14:46;;;;;;;1.00;1.00;;;;;;;9.59;44.70;98750.88;4901273;29;20051;-85
2022/05/04 09:17:15;;;;;;;1.00;1.00;;;;;;;9.85;43.76;98752.94;4917070;29;20060;-85
2022/05/04 09:22:42;;;;;;;1.10;1.10;;;;;;;10.89;40.28;98754.09;4933355;29;20495;-85
2022/05/04 09:25:18;;;;;;;1.00;1.00;;;;;;;11.42;39.72;98763.28;4934119;29;20075;-85
2022/05/04 09:27:48;;;;;;;1.00;1.00;;;;;;;12.34;38.09;98774.81;4934068;29;20454;-83
2022/05/04 09:30:16;;;;;;;1.00;1.00;;;;;;;12.86;35.91;98775.06;4916727;29;20052;-84
2022/05/04 09:32:44;;;;;;;1.10;1.10;;;;;;;13.32;34.63;98748.13;4938892;29;20056;-85
2022/05/04 09:35:15;;;;;;;1.10;1.10;;;;;;;13.99;33.33;98768.78;4946105;29;20518;-84
2022/05/04 09:46:33;;;;;;;0.60;0.60;;;;;;;12.21;32.82;98755.53;4892690;29;20068;-86
2022/05/04 09:49:30;;;;;;;0.80;0.80;;;;;;;11.93;32.71;98749.41;4893336;29;20087;-84
2022/05/04 09:52:02;;;;;;;1.00;1.00;;;;;;;12.56;31.24;98763.06;4885833;29;20120;-84
2022/05/04 09:54:30;;;;;;;1.00;1.00;;;;;;;13.38;29.50;98741.66;4893260;29;20064;-83
2022/05/04 09:57:00;;;;;;;1.00;1.00;;;;;;;13.12;28.94;98759.75;4895209;29;20052;-83
2022/05/04 09:59:30;;;;;;;1.00;1.00;;;;;;;13.60;28.60;98752.25;4896702;29;20048;-84
2022/05/04 10:01:59;;;;;;;0.90;0.90;;;;;;;13.81;28.93;98737.59;4896741;29;20136;-84
2022/05/04 10:04:27;;;;;;;1.00;1.00;;;;;;;14.11;28.54;98741.38;4896845;29;20080;-83
2022/05/04 10:07:06;;;;;;;1.00;1.00;;;;;;;14.51;27.61;98753.22;4896982;29;20060;-86
2022/05/04 10:09:33;;;;;;;1.00;1.00;;;;;;;15.41;27.22;98765.88;4881112;29;20683;-83
2022/05/04 10:12:00;;;;;;;0.90;0.90;;;;;;;16.31;26.64;98761.91;4896684;29;20048;-84
2022/05/04 10:14:29;;;;;;;0.90;0.90;;;;;;;16.89;24.92;98767.25;4880384;29;20056;-83
2022/05/04 10:17:18;;;;;;;0.90;0.90;;;;;;;16.49;25.79;98768.50;4881384;29;20052;-84
2022/05/04 10:19:55;;;;;;;0.90;0.90;;;;;;;15.91;26.06;98757.66;4896991;29;20142;-84
2022/05/04 10:22:31;;;;;;;0.90;0.90;;;;;;;15.70;25.50;98770.56;4937416;29;20130;-83
2022/05/04 10:25:00;;;;;;;1.00;1.00;;;;;;;15.55;25.74;98772.31;4936718;29;20166;-83
2022/05/04 10:27:29;;;;;;;0.55;0.55;;;;;;;15.06;27.19;98770.41;4919074;29;20048;-84
2022/05/04 10:32:48;;;;;;;0.40;0.40;;;;;;;12.73;29.89;98763.66;4936360;29;20047;-84
2022/05/04 10:35:41;;;;;;;0.40;0.40;;;;;;;10.84;33.14;98792.63;4935218;29;20483;-84
2022/05/04 10:38:14;;;;;;;0.50;0.50;;;;;;;9.39;38.85;98803.31;4936373;29;20052;-84
2022/05/04 10:40:54;;;;;;;0.60;0.60;;;;;;;8.48;41.54;98837.25;4936113;29;20047;-84
2022/05/04 10:43:50;;;;;;;0.60;0.60;;;;;;;7.88;43.51;98849.81;4936514;29;20142;-84
2022/05/04 10:46:21;;;;;;;;;;;;;;;7.52;44.32;98864.19;4936997;29;20055;-84
2022/05/04 10:48:52;;;;;;;0.60;0.60;;;;;;;7.26;46.10;98887.66;4936710;29;19954;-84
2022/05/04 10:51:21;;;;;;;0.80;0.80;;;;;;;6.72;49.16;98895.50;4936714;29;20138;-83
2022/05/04 10:53:50;;;;;;;0.90;0.90;;;;;;;7.25;51.60;98906.69;4919278;29;20063;-83
2022/05/04 10:56:22;;;;;;;0.80;0.80;;;;;;;7.32;52.94;98905.56;4936457;29;20095;-84
2022/05/04 10:58:49;;;;;;;0.90;0.90;;;;;;;6.73;56.74;98907.88;4934648;29;20047;-83
2022/05/04 11:01:26;;;;;;;1.00;1.00;;;;;;;8.04;56.45;98896.72;4936061;29;20056;-83
2022/05/04 11:04:11;;;;;;;0.70;0.70;;;;;;;7.81;55.81;98882.16;4936001;29;20083;-83
2022/05/04 11:06:52;;;;;;;1.10;1.10;;;;;;;7.82;57.16;98885.66;4921075;29;20055;-83
2022/05/04 11:09:21;;;;;;;1.00;1.00;;;;;;;9.60;54.65;98884.53;4938117;29;20196;-82
2022/05/04 11:11:53;;;;;;;0.70;0.70;;;;;;;9.82;53.37;98876.56;4935736;29;20056;-83
2022/05/04 11:14:24;;;;;;;0.90;0.90;;;;;;;8.97;55.01;98875.47;4935689;29;20154;-83
2022/05/04 11:16:53;;;;;;;1.40;1.30;;;;;;;10.23;51.68;98878.09;4935919;29;20093;-83
2022/05/04 11:19:29;;;;;;;1.13;1.13;;;;;;;12.40;47.83;98873.09;4935764;29;20116;-83
2022/05/04 11:21:56;;;;;;;1.20;1.20;;;;;;;12.78;42.61;98871.97;4903886;29;20073;-83
2022/05/04 11:24:28;;;;;;;1.10;1.10;;;;;;;13.40;43.79;98875.03;4936806;29;20541;-85
2022/05/04 11:26:55;;;;;;;1.10;1.10;;;;;;;13.77;38.68;98891.09;4936724;29;20356;-85
2022/05/04 11:29:24;;;;;;;1.00;1.00;;;;;;;13.14;39.84;98887.59;4918550;29;20047;-84
2022/05/04 11:31:54;;;;;;;1.00;1.00;;;;;;;13.77;39.56;98885.69;4936067;29;20102;-83
2022/05/04 11:34:23;;;;;;;1.00;1.00;;;;;;;14.07;37.42;98875.97;4937743;29;20056;-83
2022/05/04 11:36:52;;;;;;;1.10;1.10;;;;;;;15.11;36.95;98872.84;4935953;29;20487;-84
2022/05/04 11:39:22;;;;;;;0.90;0.90;;;;;;;14.92;36.47;98873.47;4918703;29;20103;-84
2022/05/04 11:41:52;;;;;;;1.10;1.10;;;;;;;15.54;35.21;98882.19;4935310;29;20055;-85
2022/05/04 11:44:24;;;;;;;1.10;1.10;;;;;;;16.24;34.58;98876.56;4950231;29;20526;-85
2022/05/04 11:46:53;;;;;;;0.70;0.70;;;;;;;15.86;33.99;98885.59;4935649;29;20538;-84
2022/05/04 11:49:23;;;;;;;0.50;0.50;;;;;;;13.62;36.67;98886.47;4903003;29;20048;-85
2022/05/04 11:51:51;;;;;;;0.50;0.50;;;;;;;12.07;39.78;98902.03;4935283;29;20460;-86
2022/05/04 11:54:19;;;;;;;0.60;0.60;;;;;;;11.11;41.01;98894.47;4918304;29;20051;-84
2022/05/04 11:56:47;;;;;;;0.60;0.60;;;;;;;10.28;41.90;98891.69;4935060;29;20075;-82
2022/05/04 11:59:14;;;;;;;0.80;0.80;;;;;;;10.67;41.70;98886.34;4918851;29;20454;-85
2022/05/04 12:01:43;;;;;;;1.10;1.10;;;;;;;12.13;39.54;98892.91;4933785;29;20533;-85
2022/05/04 12:04:12;;;;;;;1.20;1.20;;;;;;;14.19;36.55;98887.38;4935178;29;20114;-86
2022/05/04 12:06:41;;;;;;;1.00;1.00;;;;;;;15.57;33.65;98887.06;4935279;29;20439;-85
2022/05/04 12:09:16;;;;;;;0.80;0.80;;;;;;;16.02;33.44;98890.63;4948444;29;20051;-84
2022/05/04 12:11:44;;;;;;;0.50;0.50;;;;;;;13.98;35.67;98891.16;4934552;29;20044;-84
2022/05/04 12:14:11;;;;;;;0.60;0.60;;;;;;;12.86;37.98;98888.81;4934987;29;20082;-85
2022/05/04 12:16:38;;;;;;;1.20;1.20;;;;;;;13.53;36.50;98887.25;4917764;29;20143;-84
2022/05/04 12:19:07;;;;;;;1.10;1.10;;;;;;;15.40;34.06;98875.72;4917310;29;20099;-84
2022/05/04 12:21:35;;;;;;;1.10;1.10;;;;;;;15.17;33.80;98878.00;4934829;29;20127;-86
2022/05/04 12:24:02;;;;;;;1.10;1.10;;;;;;;15.25;33.59;98870.38;4917469;29;20051;-84
2022/05/04 12:26:29;;;;;;;1.10;1.10;;;;;;;15.65;32.24;98865.78;4934465;29;20419;-85
2022/05/04 12:34:31;;;;;;;0.95;0.95;;;;;;;16.47;31.33;98866.84;4936818;29;20066;-84
2022/05/04 12:37:02;;;;;;;0.40;0.40;;;;;;;13.73;32.07;98862.91;4919055;29;20503;-85